Plymouth Light

42° 00' 12"N, 70° 36' 04"W, Elevation 54 ft.
Eastern Time

Hourly observations for the last 72 hours

Date Time Temperature (°F) Humi-
dity

(%)
Wind
(mph)
Pressure Rain (in) Sun
(W/m2)
ET
(in)
Air Dew 6 Hour 1 Hr 3 Hr 6 Hr Day
Alt
(in)
Sea
Level

(mb)
Max Min
18 09:00 64.4 63.8 98 WSW 1 G 2 29.93 1013.7 0.00 95 0.002
18 08:00 62.4 61.8 62.7 60.2 98 SW 3 G 5 29.94 1013.8 0.00 46 0.001
18 07:00 61.8 61.2 98 WSW 3 G 9 29.94 1013.9 0.00 19 0.000
18 06:00 61.6 61.0 98 SW 8 G 11 29.94 1013.9 0.00 12 0.000
18 05:00 61.7 60.8 97 SW 4 G 7 29.93 1013.6 0.00 0 0.000
18 04:00 60.6 59.5 96 SW 5 G 8 29.93 1013.7 0.00 0 0.000
18 03:00 62.2 60.8 95 SW 3 G 8 29.93 1013.6 0.00 0 0.000
18 02:00 62.3 60.9 65.8 60.0 95 WSW 7 G 11 29.95 1014.1 0.00 0 0.000
18 01:00 61.6 60.2 95 WSW 6 G 10 29.95 1014.4 0.00 0 0.000
18 00:00 60.9 59.2 94 WSW 4 G 7 29.95 1014.3 0.01 0 0.150
17 23:00 61.2 58.9 92 WSW 5 G 9 29.95 1014.2 0.01 0 0.150
17 22:00 62.3 59.6 91 SW 10 G 12 29.95 1014.2 0.01 0 0.149
17 21:00 62.4 59.1 89 SSW 6 G 8 29.94 1014.1 0.01 0 0.148
17 20:00 65.3 59.7 65.3 61.0 82 SSW 6 G 11 29.93 1013.7 0.01 21 0.146
17 19:00 61.5 55.6 81 SSE 8 G 11 29.93 1013.5 0.01 113 0.141
17 18:00 62.6 56.0 79 S 9 G 12 29.94 1013.8 0.01 318 0.132
17 17:00 63.2 56.2 78 SSE 5 G 9 29.93 1013.7 0.01 345 0.122
17 16:00 62.1 56.9 83 S 6 G 8 29.95 1014.2 0.01 455 0.110
17 15:00 64.6 58.6 81 E 2 G 6 29.94 1014.1 0.01 612 0.096
17 14:00 63.6 57.0 67.1 62.3 79 E 5 G 7 29.95 1014.2 0.01 459 0.082
17 13:00 64.2 56.5 76 E 4 G 7 29.96 1014.5 0.01 686 0.070
17 12:00 64.4 58.1 80 NNE 6 G 11 29.95 1014.2 0.01 401 0.053
17 11:00 65.7 59.7 81 N 9 G 13 29.93 1013.6 0.01 856 0.034
17 10:00 65.8 61.2 85 N 5 G 10 29.92 1013.1 0.01 731 0.019
17 09:00 65.2 62.8 92 NNE 3 G 8 29.91 1012.8 0.01 587 0.009
17 08:00 62.4 61.8 64.3 62.2 98 N 6 G 12 29.90 1012.4 0.01 0.01 360 0.003
17 07:00 63.5 63.2 99 N 3 G 8 29.87 1011.5 0.01 97 0.001
17 06:00 63.1 62.8 99 NW 3 G 6 29.85 1010.8 0.01 74 0.000
17 05:00 62.9 62.6 99 NW 3 G 5 29.82 1009.9 0.01 0.01 0 0.000
17 04:00 63.0 62.7 99 NW 5 G 8 29.80 1009.0 0.01 0.01 0 0.000
17 03:00 62.9 62.6 99 W 5 G 7 29.78 1008.4 0.00 0 0.000
17 02:00 62.7 62.1 63.2 60.3 98 W 5 G 7 29.77 1008.3 0.01 0.00 0 0.000
17 01:00 61.3 60.7 98 SW 2 G 5 29.77 1008.3 0.00 0 0.000
17 00:00 61.8 61.2 98 SW 1 G 4 29.78 1008.4 0.08 0 0.053
16 23:00 62.2 61.3 97 SW 2 G 4 29.78 1008.5 0.01 0.08 0 0.053
16 22:00 62.5 61.6 97 WSW 3 G 4 29.79 1008.9 0.08 0 0.053
16 21:00 62.2 61.6 98 SW 5 G 12 29.77 1008.3 0.01 0.08 0 0.053
16 20:00 61.3 60.2 66.9 61.0 96 SW 10 G 13 29.77 1008.3 0.07 0 0.052
16 19:00 62.6 60.5 93 SW 8 G 13 29.78 1008.6 0.07 25 0.051
16 18:00 63.4 61.0 92 SW 10 G 15 29.77 1008.3 0.07 37 0.049
16 17:00 64.2 61.5 91 WSW 6 G 15 29.80 1009.1 0.07 53 0.047
16 16:00 63.4 61.0 92 SSW 9 G 12 29.81 1009.6 0.07 88 0.043
16 15:00 64.3 60.4 87 SSW 9 G 13 29.82 1010.0 0.07 156 0.038
16 14:00 64.6 62.2 67.9 60.8 92 SW 9 G 13 29.83 1010.2 0.01 0.01 0.01 0.07 341 0.032
16 13:00 67.8 63.8 87 WSW 3 G 6 29.84 1010.6 0.06 105 0.028
16 12:00 63.9 61.2 91 SW 4 G 9 29.85 1010.8 0.06 139 0.025
16 11:00 63.4 61.0 92 WSW 10 G 16 29.85 1011.0 0.06 98 0.021
16 10:00 62.9 60.5 92 SW 9 G 14 29.86 1011.1 0.06 237 0.015
16 09:00 61.0 59.3 94 SW 11 G 15 29.87 1011.5 0.06 120 0.012
16 08:00 61.3 59.6 65.4 61.2 94 SW 5 G 11 29.88 1011.7 0.05 0.06 0.06 88 0.010
16 07:00 61.7 59.7 93 WSW 6 G 13 29.87 1011.5 0.06 39 0.009
16 06:00 63.0 60.6 92 W 8 G 16 29.87 1011.4 0.05 0.06 25 0.008
16 05:00 63.0 59.7 89 W 10 G 18 29.87 1011.5 0.01 0.01 0.01 0 0.006
16 04:00 65.1 58.4 79 WSW 12 G 18 29.86 1011.2 0.00 0 0.004
16 03:00 62.9 57.0 81 WSW 7 G 13 29.85 1011.0 0.00 0 0.003
16 02:00 62.7 56.1 67.4 62.5 79 WSW 7 G 14 29.86 1011.1 0.00 0 0.002
16 01:00 63.2 54.8 74 WSW 8 G 16 29.87 1011.4 0.00 0 0.000
16 00:00 63.1 53.9 72 WSW 8 G 14 29.88 1012.0 0.00 0 0.275
15 23:00 64.2 53.8 69 WSW 9 G 20 29.90 1012.6 0.00 0 0.272
15 22:00 64.7 53.5 67 WSW 9 G 21 29.91 1012.9 0.00 0 0.268
15 21:00 65.5 52.6 63 WSW 10 G 26 29.91 1013.0 0.00 0 0.264
15 20:00 67.2 51.5 72.5 67.1 57 WSW 15 G 24 29.91 1012.9 0.00 16 0.258
15 19:00 69.9 53.0 55 WSW 12 G 30 29.91 1013.0 0.00 137 0.246
15 18:00 71.3 54.3 55 WSW 12 G 32 29.91 1012.9 0.00 269 0.230
15 17:00 71.1 54.1 55 WSW 14 G 26 29.93 1013.4 0.00 517 0.209
15 16:00 71.1 52.6 52 SW 17 G 26 29.94 1014.0 0.00 671 0.186
15 15:00 72.2 53.6 52 WSW 10 G 28 29.96 1014.6 0.00 795 0.161
15 14:00 69.3 52.5 73.5 61.7 55 SW 11 G 21 29.98 1015.3 0.00 886 0.134
15 13:00 72.6 51.2 47 WSW 4 G 17 30.00 1015.8 0.00 928 0.108
15 12:00 72.1 49.6 45 W 8 G 16 30.02 1016.6 0.00 923 0.083
15 11:00 71.8 52.2 50 WSW 7 G 13 30.04 1017.3 0.00 907 0.061
15 10:00 70.4 54.0 56 W 5 G 8 30.06 1018.0 0.00 758 0.043

Data generated by WxSolution Version 1.9.1.1, Build 2017.11.27.